sensor_id;sensor_type;location;lat;lon;timestamp;pressure;altitude;pressure_sealevel;temperature;humidity
8366;BME280;4220;42.502;24.188;2022-12-29T00:00:01;96273.81;;;4.96;100.00
8366;BME280;4220;42.502;24.188;2022-12-29T00:02:29;96270.53;;;5.02;100.00
8366;BME280;4220;42.502;24.188;2022-12-29T00:04:56;96274.59;;;4.96;100.00
8366;BME280;4220;42.502;24.188;2022-12-29T00:07:23;96261.56;;;4.79;100.00
8366;BME280;4220;42.502;24.188;2022-12-29T00:09:51;96274.44;;;4.90;100.00
8366;BME280;4220;42.502;24.188;2022-12-29T00:12:18;96277.34;;;4.79;100.00
8366;BME280;4220;42.502;24.188;2022-12-29T00:14:45;96273.41;;;4.83;100.00
8366;BME280;4220;42.502;24.188;2022-12-29T00:17:29;96283.13;;;4.90;100.00
8366;BME280;4220;42.502;24.188;2022-12-29T00:19:56;96278.28;;;5.03;100.00
8366;BME280;4220;42.502;24.188;2022-12-29T00:22:40;96272.72;;;5.14;100.00
8366;BME280;4220;42.502;24.188;2022-12-29T00:25:26;96286.75;;;5.23;100.00
8366;BME280;4220;42.502;24.188;2022-12-29T00:28:10;96281.13;;;5.18;100.00
8366;BME280;4220;42.502;24.188;2022-12-29T00:30:58;96286.75;;;5.23;100.00
8366;BME280;4220;42.502;24.188;2022-12-29T00:33:43;96287.22;;;5.26;100.00
8366;BME280;4220;42.502;24.188;2022-12-29T00:36:30;96279.50;;;5.25;100.00
8366;BME280;4220;42.502;24.188;2022-12-29T00:39:01;96281.59;;;5.13;100.00
8366;BME280;4220;42.502;24.188;2022-12-29T00:42:04;96289.81;;;5.10;100.00
8366;BME280;4220;42.502;24.188;2022-12-29T00:44:49;96284.94;;;4.90;100.00
8366;BME280;4220;42.502;24.188;2022-12-29T00:47:15;96289.19;;;4.83;100.00
8366;BME280;4220;42.502;24.188;2022-12-29T00:49:42;96290.84;;;4.84;100.00
8366;BME280;4220;42.502;24.188;2022-12-29T00:52:10;96288.41;;;4.90;100.00
8366;BME280;4220;42.502;24.188;2022-12-29T00:54:38;96296.81;;;4.94;100.00
8366;BME280;4220;42.502;24.188;2022-12-29T00:57:08;96302.16;;;4.84;100.00
8366;BME280;4220;42.502;24.188;2022-12-29T00:59:36;96280.59;;;4.73;100.00
8366;BME280;4220;42.502;24.188;2022-12-29T01:02:03;96302.25;;;4.67;100.00
8366;BME280;4220;42.502;24.188;2022-12-29T01:04:30;96300.59;;;4.66;100.00
8366;BME280;4220;42.502;24.188;2022-12-29T01:06:57;96306.13;;;4.62;100.00
8366;BME280;4220;42.502;24.188;2022-12-29T01:09:23;96304.28;;;4.55;100.00
8366;BME280;4220;42.502;24.188;2022-12-29T01:12:09;96241.69;;;4.17;100.00
8366;BME280;4220;42.502;24.188;2022-12-29T01:14:37;96288.13;;;4.42;100.00
8366;BME280;4220;42.502;24.188;2022-12-29T01:17:04;96288.94;;;4.42;100.00
8366;BME280;4220;42.502;24.188;2022-12-29T01:19:31;96296.88;;;4.25;100.00
8366;BME280;4220;42.502;24.188;2022-12-29T01:21:58;96291.28;;;4.02;100.00
8366;BME280;4220;42.502;24.188;2022-12-29T01:24:25;96294.88;;;4.01;100.00
8366;BME280;4220;42.502;24.188;2022-12-29T01:26:51;96280.63;;;4.04;100.00
8366;BME280;4220;42.502;24.188;2022-12-29T01:29:21;96284.59;;;4.08;100.00
8366;BME280;4220;42.502;24.188;2022-12-29T01:31:48;96286.97;;;4.19;100.00
8366;BME280;4220;42.502;24.188;2022-12-29T01:34:15;96274.38;;;4.22;100.00
8366;BME280;4220;42.502;24.188;2022-12-29T01:36:42;96277.59;;;4.16;100.00
8366;BME280;4220;42.502;24.188;2022-12-29T01:39:08;96271.91;;;4.03;100.00
8366;BME280;4220;42.502;24.188;2022-12-29T01:41:35;96241.06;;;3.79;100.00
8366;BME280;4220;42.502;24.188;2022-12-29T01:44:02;96268.13;;;3.97;100.00
8366;BME280;4220;42.502;24.188;2022-12-29T01:46:34;96255.47;;;3.93;100.00
8366;BME280;4220;42.502;24.188;2022-12-29T01:49:05;96263.19;;;3.77;100.00
8366;BME280;4220;42.502;24.188;2022-12-29T01:51:39;96250.44;;;3.64;100.00
8366;BME280;4220;42.502;24.188;2022-12-29T01:54:11;96250.50;;;3.72;100.00
8366;BME280;4220;42.502;24.188;2022-12-29T01:56:40;96251.38;;;3.81;100.00
8366;BME280;4220;42.502;24.188;2022-12-29T01:59:12;96247.97;;;3.63;100.00
8366;BME280;4220;42.502;24.188;2022-12-29T02:01:43;96253.13;;;3.72;100.00
8366;BME280;4220;42.502;24.188;2022-12-29T02:04:11;96233.28;;;3.70;100.00
8366;BME280;4220;42.502;24.188;2022-12-29T02:06:43;96235.38;;;3.66;100.00
8366;BME280;4220;42.502;24.188;2022-12-29T02:09:11;96246.56;;;3.68;100.00
8366;BME280;4220;42.502;24.188;2022-12-29T02:11:38;96240.78;;;3.65;100.00
8366;BME280;4220;42.502;24.188;2022-12-29T02:14:08;96238.69;;;3.51;100.00
8366;BME280;4220;42.502;24.188;2022-12-29T02:16:57;96233.44;;;3.51;100.00
8366;BME280;4220;42.502;24.188;2022-12-29T02:19:58;96236.66;;;3.62;100.00
8366;BME280;4220;42.502;24.188;2022-12-29T02:22:38;96216.19;;;3.66;100.00
8366;BME280;4220;42.502;24.188;2022-12-29T02:25:37;96227.44;;;3.76;100.00
8366;BME280;4220;42.502;24.188;2022-12-29T02:28:28;96232.34;;;3.79;100.00
8366;BME280;4220;42.502;24.188;2022-12-29T02:31:14;96233.34;;;3.78;100.00
8366;BME280;4220;42.502;24.188;2022-12-29T02:33:53;96223.44;;;3.72;100.00
8366;BME280;4220;42.502;24.188;2022-12-29T02:36:29;96221.03;;;3.78;100.00
8366;BME280;4220;42.502;24.188;2022-12-29T02:39:03;96225.97;;;3.81;100.00
8366;BME280;4220;42.502;24.188;2022-12-29T02:41:32;96225.41;;;3.70;100.00
8366;BME280;4220;42.502;24.188;2022-12-29T02:44:04;96213.88;;;3.63;100.00
8366;BME280;4220;42.502;24.188;2022-12-29T02:46:43;96226.06;;;3.72;100.00
8366;BME280;4220;42.502;24.188;2022-12-29T02:49:15;96225.88;;;3.65;100.00
8366;BME280;4220;42.502;24.188;2022-12-29T02:51:51;96219.56;;;3.41;100.00
8366;BME280;4220;42.502;24.188;2022-12-29T02:54:19;96159.75;;;2.74;100.00
8366;BME280;4220;42.502;24.188;2022-12-29T02:57:07;96207.63;;;2.66;100.00
8366;BME280;4220;42.502;24.188;2022-12-29T02:59:35;96212.47;;;2.61;100.00
8366;BME280;4220;42.502;24.188;2022-12-29T03:02:37;96211.53;;;2.62;100.00
8366;BME280;4220;42.502;24.188;2022-12-29T03:08:02;96216.66;;;2.81;100.00
8366;BME280;4220;42.502;24.188;2022-12-29T03:10:39;96196.47;;;2.64;100.00
8366;BME280;4220;42.502;24.188;2022-12-29T03:13:16;96211.25;;;2.65;100.00
8366;BME280;4220;42.502;24.188;2022-12-29T03:16:07;96206.34;;;2.52;100.00
8366;BME280;4220;42.502;24.188;2022-12-29T03:18:47;96205.91;;;2.57;100.00
8366;BME280;4220;42.502;24.188;2022-12-29T03:21:20;96199.59;;;2.50;100.00
8366;BME280;4220;42.502;24.188;2022-12-29T03:24:12;96208.78;;;2.54;100.00
8366;BME280;4220;42.502;24.188;2022-12-29T03:26:41;96217.75;;;2.51;100.00
8366;BME280;4220;42.502;24.188;2022-12-29T03:29:11;96167.97;;;2.34;100.00
8366;BME280;4220;42.502;24.188;2022-12-29T03:31:39;96206.34;;;2.52;100.00
8366;BME280;4220;42.502;24.188;2022-12-29T03:34:09;96209.78;;;2.53;100.00
8366;BME280;4220;42.502;24.188;2022-12-29T03:36:42;96209.78;;;2.43;100.00
8366;BME280;4220;42.502;24.188;2022-12-29T03:39:12;96208.66;;;2.55;100.00
8366;BME280;4220;42.502;24.188;2022-12-29T03:41:41;96208.91;;;2.62;100.00
8366;BME280;4220;42.502;24.188;2022-12-29T03:44:10;96160.81;;;2.36;100.00
8366;BME280;4220;42.502;24.188;2022-12-29T03:46:37;96124.91;;;2.19;100.00
8366;BME280;4220;42.502;24.188;2022-12-29T03:49:04;96212.47;;;2.61;100.00
8366;BME280;4220;42.502;24.188;2022-12-29T03:51:32;96208.06;;;2.61;100.00
8366;BME280;4220;42.502;24.188;2022-12-29T03:53:59;96216.72;;;2.72;100.00
8366;BME280;4220;42.502;24.188;2022-12-29T03:56:26;96223.72;;;2.71;100.00
8366;BME280;4220;42.502;24.188;2022-12-29T03:58:53;96214.28;;;2.60;100.00
8366;BME280;4220;42.502;24.188;2022-12-29T04:01:19;96199.59;;;2.50;100.00
8366;BME280;4220;42.502;24.188;2022-12-29T04:03:46;96209.00;;;2.43;100.00
8366;BME280;4220;42.502;24.188;2022-12-29T04:06:13;96204.91;;;2.31;100.00
8366;BME280;4220;42.502;24.188;2022-12-29T04:08:41;96212.56;;;2.42;100.00
8366;BME280;4220;42.502;24.188;2022-12-29T04:11:08;96207.44;;;2.50;100.00
8366;BME280;4220;42.502;24.188;2022-12-29T04:13:35;96203.44;;;2.46;100.00
8366;BME280;4220;42.502;24.188;2022-12-29T04:16:03;96202.56;;;2.28;100.00
8366;BME280;4220;42.502;24.188;2022-12-29T04:18:30;96213.16;;;2.36;100.00
8366;BME280;4220;42.502;24.188;2022-12-29T04:20:56;96213.13;;;2.45;100.00
8366;BME280;4220;42.502;24.188;2022-12-29T04:23:26;96208.28;;;2.50;100.00
8366;BME280;4220;42.502;24.188;2022-12-29T04:25:54;96216.75;;;2.62;100.00
8366;BME280;4220;42.502;24.188;2022-12-29T04:28:21;96172.47;;;2.41;100.00
8366;BME280;4220;42.502;24.188;2022-12-29T04:30:48;96216.88;;;2.70;100.00
8366;BME280;4220;42.502;24.188;2022-12-29T04:33:15;96220.22;;;2.62;100.00
8366;BME280;4220;42.502;24.188;2022-12-29T04:35:42;96220.50;;;2.59;100.00
8366;BME280;4220;42.502;24.188;2022-12-29T04:38:09;96222.66;;;2.64;100.00
8366;BME280;4220;42.502;24.188;2022-12-29T04:40:38;96217.16;;;2.67;100.00
8366;BME280;4220;42.502;24.188;2022-12-29T04:43:06;96215.88;;;2.71;100.00
8366;BME280;4220;42.502;24.188;2022-12-29T04:45:33;96218.50;;;2.71;100.00
8366;BME280;4220;42.502;24.188;2022-12-29T04:48:00;96219.44;;;2.52;100.00
8366;BME280;4220;42.502;24.188;2022-12-29T04:50:27;96212.06;;;2.29;100.00
8366;BME280;4220;42.502;24.188;2022-12-29T04:52:54;96230.56;;;2.18;100.00
8366;BME280;4220;42.502;24.188;2022-12-29T04:55:21;96221.50;;;2.12;100.00
8366;BME280;4220;42.502;24.188;2022-12-29T04:57:48;96211.31;;;1.99;100.00
8366;BME280;4220;42.502;24.188;2022-12-29T05:00:16;96220.56;;;1.84;100.00
8366;BME280;4220;42.502;24.188;2022-12-29T05:02:43;96226.81;;;1.64;100.00
8366;BME280;4220;42.502;24.188;2022-12-29T05:05:10;96231.22;;;1.54;100.00
8366;BME280;4220;42.502;24.188;2022-12-29T05:07:37;96222.69;;;1.71;100.00
8366;BME280;4220;42.502;24.188;2022-12-29T05:10:04;96205.31;;;1.80;100.00
8366;BME280;4220;42.502;24.188;2022-12-29T05:12:32;96207.91;;;1.89;100.00
8366;BME280;4220;42.502;24.188;2022-12-29T05:14:59;96208.94;;;1.69;100.00
8366;BME280;4220;42.502;24.188;2022-12-29T05:17:29;96219.94;;;1.63;100.00
8366;BME280;4220;42.502;24.188;2022-12-29T05:19:56;96213.47;;;1.39;100.00
8366;BME280;4220;42.502;24.188;2022-12-29T05:22:23;96216.91;;;1.58;100.00
8366;BME280;4220;42.502;24.188;2022-12-29T05:24:50;96226.66;;;1.75;100.00
8366;BME280;4220;42.502;24.188;2022-12-29T05:27:17;96227.47;;;1.85;100.00
8366;BME280;4220;42.502;24.188;2022-12-29T05:29:44;96224.59;;;1.88;100.00
8366;BME280;4220;42.502;24.188;2022-12-29T05:32:10;96235.19;;;1.77;100.00
8366;BME280;4220;42.502;24.188;2022-12-29T05:34:39;96230.94;;;1.67;100.00
8366;BME280;4220;42.502;24.188;2022-12-29T05:37:05;96229.53;;;1.72;100.00
8366;BME280;4220;42.502;24.188;2022-12-29T05:39:32;96220.34;;;1.59;100.00
8366;BME280;4220;42.502;24.188;2022-12-29T05:41:59;96216.38;;;1.64;100.00
8366;BME280;4220;42.502;24.188;2022-12-29T05:44:26;96228.34;;;1.67;100.00
8366;BME280;4220;42.502;24.188;2022-12-29T05:46:53;96228.47;;;1.65;100.00
8366;BME280;4220;42.502;24.188;2022-12-29T05:49:20;96217.16;;;1.65;100.00
8366;BME280;4220;42.502;24.188;2022-12-29T05:51:48;96189.81;;;1.59;100.00
8366;BME280;4220;42.502;24.188;2022-12-29T05:54:15;96222.78;;;1.79;100.00
8366;BME280;4220;42.502;24.188;2022-12-29T05:56:41;96222.91;;;1.87;100.00
8366;BME280;4220;42.502;24.188;2022-12-29T05:59:08;96221.13;;;1.88;100.00
8366;BME280;4220;42.502;24.188;2022-12-29T06:01:35;96229.78;;;1.98;100.00
8366;BME280;4220;42.502;24.188;2022-12-29T06:04:02;96228.56;;;1.92;100.00
8366;BME280;4220;42.502;24.188;2022-12-29T06:06:29;96232.16;;;1.91;100.00
8366;BME280;4220;42.502;24.188;2022-12-29T06:08:57;96236.97;;;1.96;100.00
8366;BME280;4220;42.502;24.188;2022-12-29T06:11:24;96242.44;;;2.03;100.00
8366;BME280;4220;42.502;24.188;2022-12-29T06:13:51;96209.34;;;1.74;100.00
8366;BME280;4220;42.502;24.188;2022-12-29T06:16:17;96242.44;;;2.03;100.00
8366;BME280;4220;42.502;24.188;2022-12-29T06:18:45;96235.28;;;2.05;100.00
8366;BME280;4220;42.502;24.188;2022-12-29T06:21:12;96243.81;;;2.07;100.00
8366;BME280;4220;42.502;24.188;2022-12-29T06:23:39;96234.06;;;1.89;100.00
8366;BME280;4220;42.502;24.188;2022-12-29T06:26:07;96238.09;;;1.84;100.00
8366;BME280;4220;42.502;24.188;2022-12-29T06:28:34;96244.81;;;1.86;100.00
8366;BME280;4220;42.502;24.188;2022-12-29T06:31:01;96247.13;;;1.99;100.00
8366;BME280;4220;42.502;24.188;2022-12-29T06:33:28;96243.81;;;2.07;100.00
8366;BME280;4220;42.502;24.188;2022-12-29T06:35:55;96249.47;;;2.02;100.00
8366;BME280;4220;42.502;24.188;2022-12-29T06:38:22;96249.22;;;1.95;100.00
8366;BME280;4220;42.502;24.188;2022-12-29T06:40:48;96258.19;;;1.83;100.00
8366;BME280;4220;42.502;24.188;2022-12-29T06:43:17;96251.56;;;1.79;100.00
8366;BME280;4220;42.502;24.188;2022-12-29T06:45:43;96254.31;;;1.87;100.00
8366;BME280;4220;42.502;24.188;2022-12-29T06:48:10;96249.38;;;1.94;100.00
8366;BME280;4220;42.502;24.188;2022-12-29T06:50:37;96245.34;;;1.99;100.00
8366;BME280;4220;42.502;24.188;2022-12-29T06:53:04;96214.66;;;1.82;100.00
8366;BME280;4220;42.502;24.188;2022-12-29T06:55:31;96253.06;;;2.01;100.00
8366;BME280;4220;42.502;24.188;2022-12-29T06:57:58;96247.41;;;2.06;100.00
8366;BME280;4220;42.502;24.188;2022-12-29T07:00:27;96245.44;;;2.17;100.00
8366;BME280;4220;42.502;24.188;2022-12-29T07:02:55;96257.25;;;2.21;100.00
8366;BME280;4220;42.502;24.188;2022-12-29T07:05:23;96243.41;;;2.11;100.00
8366;BME280;4220;42.502;24.188;2022-12-29T07:07:52;96250.16;;;2.14;100.00
8366;BME280;4220;42.502;24.188;2022-12-29T07:10:18;96260.00;;;2.29;100.00
8366;BME280;4220;42.502;24.188;2022-12-29T07:12:45;96258.75;;;2.43;100.00
8366;BME280;4220;42.502;24.188;2022-12-29T07:15:12;96257.03;;;2.51;100.00
8366;BME280;4220;42.502;24.188;2022-12-29T07:17:40;96255.75;;;2.65;100.00
8366;BME280;4220;42.502;24.188;2022-12-29T07:20:08;96249.41;;;2.68;100.00
8366;BME280;4220;42.502;24.188;2022-12-29T07:22:35;96253.34;;;2.81;100.00
8366;BME280;4220;42.502;24.188;2022-12-29T07:25:02;96262.75;;;3.01;100.00
8366;BME280;4220;42.502;24.188;2022-12-29T07:27:29;96247.41;;;3.06;100.00
8366;BME280;4220;42.502;24.188;2022-12-29T07:29:56;96258.34;;;3.19;100.00
8366;BME280;4220;42.502;24.188;2022-12-29T07:32:23;96217.97;;;3.12;100.00
8366;BME280;4220;42.502;24.188;2022-12-29T07:34:51;96258.09;;;3.40;100.00
8366;BME280;4220;42.502;24.188;2022-12-29T07:37:18;96253.75;;;3.49;100.00
8366;BME280;4220;42.502;24.188;2022-12-29T07:39:45;96256.81;;;3.62;100.00
8366;BME280;4220;42.502;24.188;2022-12-29T07:42:12;96263.47;;;3.74;100.00
8366;BME280;4220;42.502;24.188;2022-12-29T07:44:39;96264.09;;;3.85;100.00
8366;BME280;4220;42.502;24.188;2022-12-29T07:47:06;96242.63;;;3.90;100.00
8366;BME280;4220;42.502;24.188;2022-12-29T07:49:32;96213.50;;;3.58;100.00
8366;BME280;4220;42.502;24.188;2022-12-29T07:52:00;96237.38;;;3.90;100.00
8366;BME280;4220;42.502;24.188;2022-12-29T07:54:27;96252.22;;;3.99;100.00
8366;BME280;4220;42.502;24.188;2022-12-29T07:56:54;96251.28;;;4.08;100.00
8366;BME280;4220;42.502;24.188;2022-12-29T07:59:22;96253.03;;;4.25;100.00
8366;BME280;4220;42.502;24.188;2022-12-29T08:01:49;96252.97;;;4.35;100.00
8366;BME280;4220;42.502;24.188;2022-12-29T08:04:16;96256.81;;;4.48;100.00
8366;BME280;4220;42.502;24.188;2022-12-29T08:06:43;96253.09;;;4.59;100.00
8366;BME280;4220;42.502;24.188;2022-12-29T08:09:12;96245.22;;;4.67;100.00
8366;BME280;4220;42.502;24.188;2022-12-29T08:11:39;96251.72;;;4.81;100.00
8366;BME280;4220;42.502;24.188;2022-12-29T08:14:06;96243.88;;;4.89;100.00
8366;BME280;4220;42.502;24.188;2022-12-29T08:16:33;96248.56;;;5.11;100.00
8366;BME280;4220;42.502;24.188;2022-12-29T08:19:00;96248.91;;;5.24;100.00
8366;BME280;4220;42.502;24.188;2022-12-29T08:21:28;96250.44;;;5.35;100.00
8366;BME280;4220;42.502;24.188;2022-12-29T08:23:55;96245.34;;;5.41;100.00
8366;BME280;4220;42.502;24.188;2022-12-29T08:26:23;96257.38;;;5.52;100.00
8366;BME280;4220;42.502;24.188;2022-12-29T08:28:52;96256.06;;;5.56;100.00
8366;BME280;4220;42.502;24.188;2022-12-29T08:31:19;96253.25;;;5.65;100.00
8366;BME280;4220;42.502;24.188;2022-12-29T08:33:45;96257.38;;;5.68;100.00
8366;BME280;4220;42.502;24.188;2022-12-29T08:36:12;96249.31;;;5.77;100.00
8366;BME280;4220;42.502;24.188;2022-12-29T08:38:39;96249.38;;;5.93;100.00
8366;BME280;4220;42.502;24.188;2022-12-29T08:41:06;96243.63;;;6.06;100.00
8366;BME280;4220;42.502;24.188;2022-12-29T08:43:34;96243.59;;;6.22;100.00
8366;BME280;4220;42.502;24.188;2022-12-29T08:46:01;96219.75;;;6.16;100.00
8366;BME280;4220;42.502;24.188;2022-12-29T08:48:28;96245.06;;;6.41;100.00
8366;BME280;4220;42.502;24.188;2022-12-29T08:50:55;96248.88;;;6.38;100.00
8366;BME280;4220;42.502;24.188;2022-12-29T08:53:21;96243.78;;;6.29;100.00
8366;BME280;4220;42.502;24.188;2022-12-29T08:55:55;96237.81;;;6.35;100.00
8366;BME280;4220;42.502;24.188;2022-12-29T08:58:22;96237.63;;;6.52;100.00
8366;BME280;4220;42.502;24.188;2022-12-29T09:00:52;96236.09;;;6.74;100.00
8366;BME280;4220;42.502;24.188;2022-12-29T09:03:19;96238.38;;;6.85;100.00
8366;BME280;4220;42.502;24.188;2022-12-29T09:05:47;96234.91;;;6.77;100.00
8366;BME280;4220;42.502;24.188;2022-12-29T09:08:14;96224.66;;;6.90;100.00
8366;BME280;4220;42.502;24.188;2022-12-29T09:10:41;96224.03;;;6.88;100.00
8366;BME280;4220;42.502;24.188;2022-12-29T09:13:08;96214.75;;;7.00;100.00
8366;BME280;4220;42.502;24.188;2022-12-29T09:15:35;96223.22;;;7.18;100.00
8366;BME280;4220;42.502;24.188;2022-12-29T09:18:03;96211.41;;;7.37;100.00
8366;BME280;4220;42.502;24.188;2022-12-29T09:20:30;96211.41;;;7.59;100.00
8366;BME280;4220;42.502;24.188;2022-12-29T09:22:57;96208.97;;;7.80;100.00
8366;BME280;4220;42.502;24.188;2022-12-29T09:25:24;96205.19;;;7.98;100.00
8366;BME280;4220;42.502;24.188;2022-12-29T09:27:51;96200.63;;;8.06;100.00
8366;BME280;4220;42.502;24.188;2022-12-29T09:30:20;96208.44;;;8.22;100.00
8366;BME280;4220;42.502;24.188;2022-12-29T09:32:48;96196.28;;;8.36;100.00
8366;BME280;4220;42.502;24.188;2022-12-29T09:35:16;96189.91;;;8.45;100.00
8366;BME280;4220;42.502;24.188;2022-12-29T09:37:43;96187.91;;;8.62;100.00
8366;BME280;4220;42.502;24.188;2022-12-29T09:40:25;96196.84;;;8.61;100.00
8366;BME280;4220;42.502;24.188;2022-12-29T09:43:18;96191.28;;;8.70;100.00
8366;BME280;4220;42.502;24.188;2022-12-29T09:45:52;96182.63;;;8.76;98.78
8366;BME280;4220;42.502;24.188;2022-12-29T09:48:24;96182.78;;;8.75;96.92
8366;BME280;4220;42.502;24.188;2022-12-29T09:50:57;96177.50;;;8.75;96.71
8366;BME280;4220;42.502;24.188;2022-12-29T09:53:29;96180.16;;;8.89;96.14
8366;BME280;4220;42.502;24.188;2022-12-29T09:56:00;96172.25;;;9.10;97.33
8366;BME280;4220;42.502;24.188;2022-12-29T09:58:32;96156.97;;;9.27;97.00
8366;BME280;4220;42.502;24.188;2022-12-29T10:01:04;96162.16;;;9.56;96.45
8366;BME280;4220;42.502;24.188;2022-12-29T10:03:40;96124.66;;;9.53;95.30
8366;BME280;4220;42.502;24.188;2022-12-29T10:06:17;96155.59;;;9.95;94.21
8366;BME280;4220;42.502;24.188;2022-12-29T10:08:51;96157.00;;;10.12;93.12
8366;BME280;4220;42.502;24.188;2022-12-29T10:11:33;96150.38;;;10.29;92.95
8366;BME280;4220;42.502;24.188;2022-12-29T10:14:16;96149.09;;;10.52;91.34
8366;BME280;4220;42.502;24.188;2022-12-29T10:16:51;96144.84;;;10.58;90.08
8366;BME280;4220;42.502;24.188;2022-12-29T10:19:41;96139.41;;;10.66;89.65
8366;BME280;4220;42.502;24.188;2022-12-29T10:22:19;96146.72;;;10.64;89.82
8366;BME280;4220;42.502;24.188;2022-12-29T10:24:49;96135.84;;;10.52;90.50
8366;BME280;4220;42.502;24.188;2022-12-29T10:27:17;96145.47;;;10.60;90.86
8366;BME280;4220;42.502;24.188;2022-12-29T10:29:48;96136.19;;;10.84;90.76
8366;BME280;4220;42.502;24.188;2022-12-29T10:32:23;96100.47;;;10.86;89.66
8366;BME280;4220;42.502;24.188;2022-12-29T10:34:55;96136.78;;;11.27;89.07
8366;BME280;4220;42.502;24.188;2022-12-29T10:37:30;96133.13;;;11.34;88.63
8366;BME280;4220;42.502;24.188;2022-12-29T10:40:00;96119.84;;;11.41;88.86
8366;BME280;4220;42.502;24.188;2022-12-29T10:42:34;96125.81;;;11.49;88.57
8366;BME280;4220;42.502;24.188;2022-12-29T10:45:04;96116.00;;;11.63;87.98
8366;BME280;4220;42.502;24.188;2022-12-29T10:47:35;96113.19;;;11.77;87.05
8366;BME280;4220;42.502;24.188;2022-12-29T10:50:04;96125.06;;;11.95;86.78
8366;BME280;4220;42.502;24.188;2022-12-29T10:52:34;96108.50;;;11.99;86.91
8366;BME280;4220;42.502;24.188;2022-12-29T10:55:08;96111.97;;;12.26;86.25
8366;BME280;4220;42.502;24.188;2022-12-29T10:57:41;96096.59;;;12.34;85.64
8366;BME280;4220;42.502;24.188;2022-12-29T11:00:12;96098.38;;;12.54;85.41
8366;BME280;4220;42.502;24.188;2022-12-29T11:02:52;96098.31;;;12.73;84.77
8366;BME280;4220;42.502;24.188;2022-12-29T11:05:29;96082.34;;;12.73;83.95
8366;BME280;4220;42.502;24.188;2022-12-29T11:08:04;96082.53;;;12.85;84.15
8366;BME280;4220;42.502;24.188;2022-12-29T11:10:37;96094.13;;;13.03;84.42
8366;BME280;4220;42.502;24.188;2022-12-29T11:13:12;96092.50;;;13.09;84.18
8366;BME280;4220;42.502;24.188;2022-12-29T11:15:40;96059.72;;;13.02;84.28
8366;BME280;4220;42.502;24.188;2022-12-29T11:18:19;96095.00;;;13.35;83.81
8366;BME280;4220;42.502;24.188;2022-12-29T11:20:46;96089.97;;;13.58;82.69
8366;BME280;4220;42.502;24.188;2022-12-29T11:23:24;96094.75;;;13.74;82.27
8366;BME280;4220;42.502;24.188;2022-12-29T11:26:07;96096.22;;;13.70;81.71
8366;BME280;4220;42.502;24.188;2022-12-29T11:28:34;96087.19;;;13.71;81.27
8366;BME280;4220;42.502;24.188;2022-12-29T11:31:02;96086.19;;;13.91;80.97
8366;BME280;4220;42.502;24.188;2022-12-29T11:33:30;96077.09;;;14.05;80.33
8366;BME280;4220;42.502;24.188;2022-12-29T11:35:58;96081.66;;;14.22;80.04
8366;BME280;4220;42.502;24.188;2022-12-29T11:38:34;96082.66;;;14.46;79.46
8366;BME280;4220;42.502;24.188;2022-12-29T11:41:03;96080.59;;;14.66;78.18
8366;BME280;4220;42.502;24.188;2022-12-29T11:43:32;96073.53;;;14.72;78.03
8366;BME280;4220;42.502;24.188;2022-12-29T11:46:01;96063.38;;;14.62;78.13
8366;BME280;4220;42.502;24.188;2022-12-29T11:48:31;96069.44;;;14.69;78.64
8366;BME280;4220;42.502;24.188;2022-12-29T11:50:59;96073.03;;;14.81;78.39
8366;BME280;4220;42.502;24.188;2022-12-29T11:53:32;96066.19;;;14.85;77.66
8366;BME280;4220;42.502;24.188;2022-12-29T11:56:06;96063.22;;;14.93;77.46
8366;BME280;4220;42.502;24.188;2022-12-29T11:58:36;96062.38;;;15.11;77.12
8366;BME280;4220;42.502;24.188;2022-12-29T12:01:06;96065.38;;;15.03;77.20
8366;BME280;4220;42.502;24.188;2022-12-29T12:03:38;96062.38;;;15.11;77.05
8366;BME280;4220;42.502;24.188;2022-12-29T12:06:11;96052.06;;;15.15;77.35
8366;BME280;4220;42.502;24.188;2022-12-29T12:08:46;96031.56;;;15.08;77.03
8366;BME280;4220;42.502;24.188;2022-12-29T12:11:16;96051.69;;;15.41;76.23
8366;BME280;4220;42.502;24.188;2022-12-29T12:13:52;96047.91;;;15.48;75.83
8366;BME280;4220;42.502;24.188;2022-12-29T12:16:25;96056.31;;;15.63;75.69
8366;BME280;4220;42.502;24.188;2022-12-29T12:18:56;96055.28;;;15.76;75.15
8366;BME280;4220;42.502;24.188;2022-12-29T12:21:30;96048.09;;;15.88;74.77
8366;BME280;4220;42.502;24.188;2022-12-29T12:24:15;96046.50;;;15.87;74.67
8366;BME280;4220;42.502;24.188;2022-12-29T12:26:55;96050.78;;;16.00;74.68
8366;BME280;4220;42.502;24.188;2022-12-29T12:29:26;96035.66;;;16.05;74.06
8366;BME280;4220;42.502;24.188;2022-12-29T12:31:57;96036.59;;;16.22;73.99
8366;BME280;4220;42.502;24.188;2022-12-29T12:34:30;96035.19;;;16.31;73.13
8366;BME280;4220;42.502;24.188;2022-12-29T12:40:14;96031.59;;;16.38;73.28
8366;BME280;4220;42.502;24.188;2022-12-29T12:42:49;96039.25;;;16.34;73.35
8366;BME280;4220;42.502;24.188;2022-12-29T12:45:38;96031.34;;;16.27;73.73
8366;BME280;4220;42.502;24.188;2022-12-29T12:48:22;96022.97;;;16.35;73.54
8366;BME280;4220;42.502;24.188;2022-12-29T12:51:00;96038.59;;;16.39;73.41
8366;BME280;4220;42.502;24.188;2022-12-29T12:53:42;96029.38;;;16.46;73.36
8366;BME280;4220;42.502;24.188;2022-12-29T12:56:31;96038.81;;;16.37;73.40
8366;BME280;4220;42.502;24.188;2022-12-29T12:59:06;96040.91;;;16.35;73.28
8366;BME280;4220;42.502;24.188;2022-12-29T13:01:42;96035.91;;;16.27;73.44
8366;BME280;4220;42.502;24.188;2022-12-29T13:04:35;96037.44;;;16.11;73.62
8366;BME280;4220;42.502;24.188;2022-12-29T13:07:11;96040.44;;;16.03;73.97
8366;BME280;4220;42.502;24.188;2022-12-29T13:09:57;96039.41;;;16.04;74.53
8366;BME280;4220;42.502;24.188;2022-12-29T13:12:37;96031.47;;;16.09;73.80
8366;BME280;4220;42.502;24.188;2022-12-29T13:15:14;96042.66;;;16.29;74.01
8366;BME280;4220;42.502;24.188;2022-12-29T13:17:47;96039.16;;;16.41;73.70
8366;BME280;4220;42.502;24.188;2022-12-29T13:20:25;96046.97;;;16.54;73.02
8366;BME280;4220;42.502;24.188;2022-12-29T13:22:59;96044.06;;;16.55;72.63
8366;BME280;4220;42.502;24.188;2022-12-29T13:25:35;96040.00;;;16.53;72.84
8366;BME280;4220;42.502;24.188;2022-12-29T13:28:10;96045.69;;;16.56;72.67
8366;BME280;4220;42.502;24.188;2022-12-29T13:30:42;96040.00;;;16.53;72.77
8366;BME280;4220;42.502;24.188;2022-12-29T13:33:18;96046.72;;;16.44;72.97
8366;BME280;4220;42.502;24.188;2022-12-29T13:35:55;96048.59;;;16.55;73.17
8366;BME280;4220;42.502;24.188;2022-12-29T13:38:25;96054.41;;;16.52;72.97